createdAt,value
2022-08-28T00:00:35.256Z,47.84
2022-08-28T00:03:03.342Z,48.01
2022-08-28T00:05:33.729Z,47.71
2022-08-28T00:08:03.232Z,47.82
2022-08-28T00:10:31.383Z,48.02
2022-08-28T00:12:59.553Z,47.94
2022-08-28T00:15:28.644Z,47.87
2022-08-28T00:17:56.613Z,48.03
2022-08-28T00:20:24.836Z,48.01
2022-08-28T00:22:55.511Z,48.13
2022-08-28T00:25:25.829Z,48.09
2022-08-28T00:27:52.869Z,48.32
2022-08-28T00:30:22.585Z,48.50
2022-08-28T00:32:50.624Z,48.46
2022-08-28T00:35:18.835Z,48.54
2022-08-28T00:37:48.235Z,48.65
2022-08-28T00:40:18.677Z,48.20
2022-08-28T00:42:58.120Z,48.40
2022-08-28T00:45:26.689Z,48.70
2022-08-28T00:47:54.630Z,48.71
2022-08-28T00:50:25.510Z,48.43
2022-08-28T00:52:53.857Z,48.41
2022-08-28T00:55:23.034Z,48.60
2022-08-28T00:57:52.353Z,48.78
2022-08-28T01:00:23.912Z,48.70
2022-08-28T01:02:52.037Z,48.90
2022-08-28T01:05:20.069Z,48.94
2022-08-28T01:07:48.065Z,48.80
2022-08-28T01:10:18.269Z,49.15
2022-08-28T01:12:46.491Z,48.95
2022-08-28T01:15:17.492Z,48.88
2022-08-28T01:17:48.435Z,49.28
2022-08-28T01:20:17.880Z,49.17
2022-08-28T01:22:49.100Z,49.22
2022-08-28T01:25:20.623Z,49.33
2022-08-28T01:27:48.688Z,49.04
2022-08-28T01:30:17.847Z,49.39
2022-08-28T01:32:47.316Z,49.40
2022-08-28T01:35:17.024Z,49.49
2022-08-28T01:37:45.093Z,49.46
2022-08-28T01:40:14.151Z,49.83
2022-08-28T01:42:44.008Z,49.52
2022-08-28T01:45:13.688Z,49.79
2022-08-28T01:47:41.801Z,49.38
2022-08-28T01:50:10.626Z,49.56
2022-08-28T01:52:40.665Z,49.53
2022-08-28T01:55:09.306Z,49.46
2022-08-28T01:57:37.338Z,49.72
2022-08-28T02:00:08.442Z,49.95
2022-08-28T02:02:36.488Z,49.87
2022-08-28T02:05:04.629Z,50.19
2022-08-28T02:07:32.612Z,50.31
2022-08-28T02:10:00.599Z,50.27
2022-08-28T02:12:28.673Z,50.27
2022-08-28T02:14:56.688Z,50.45
2022-08-28T02:17:26.105Z,50.28
2022-08-28T02:19:54.218Z,50.65
2022-08-28T02:22:22.238Z,51.15
2022-08-28T02:24:50.206Z,51.38
2022-08-28T02:27:18.192Z,51.00
2022-08-28T02:29:46.951Z,51.27
2022-08-28T02:32:14.908Z,51.77
2022-08-28T02:34:44.328Z,51.35
2022-08-28T02:37:13.374Z,51.49
2022-08-28T02:39:41.447Z,52.01
2022-08-28T02:42:09.532Z,51.72
2022-08-28T02:44:37.554Z,51.74
2022-08-28T02:47:05.814Z,51.61
2022-08-28T02:49:36.139Z,51.65
2022-08-28T02:52:06.842Z,51.72
2022-08-28T02:54:34.851Z,51.78
2022-08-28T02:57:02.832Z,51.57
2022-08-28T02:59:32.129Z,51.70
2022-08-28T03:02:00.900Z,51.89
2022-08-28T03:04:28.882Z,51.55
2022-08-28T03:06:56.884Z,52.10
2022-08-28T03:09:26.260Z,51.73
2022-08-28T03:11:54.717Z,51.81
2022-08-28T03:14:22.792Z,51.94
2022-08-28T03:16:50.802Z,51.60
2022-08-28T03:19:18.825Z,51.64
2022-08-28T03:21:46.777Z,52.01
2022-08-28T03:24:15.229Z,51.99
2022-08-28T03:26:45.179Z,51.58
2022-08-28T03:29:13.160Z,51.52
2022-08-28T03:31:41.165Z,51.83
2022-08-28T03:34:09.619Z,51.73
2022-08-28T03:36:37.579Z,51.77
2022-08-28T03:39:06.551Z,51.55
2022-08-28T03:41:35.215Z,51.72
2022-08-28T03:44:05.077Z,51.73
2022-08-28T03:46:33.861Z,51.88
2022-08-28T03:49:02.003Z,51.49
2022-08-28T03:51:33.008Z,51.83
2022-08-28T03:54:01.146Z,51.79
2022-08-28T03:56:30.088Z,51.51
2022-08-28T03:58:59.103Z,51.56
2022-08-28T04:01:28.916Z,51.58
2022-08-28T04:03:57.196Z,51.71
2022-08-28T04:06:25.200Z,51.75
2022-08-28T04:08:53.215Z,51.64
2022-08-28T04:11:21.244Z,51.88
2022-08-28T04:13:49.245Z,51.60
2022-08-28T04:16:19.449Z,51.81
2022-08-28T04:18:49.550Z,51.63
2022-08-28T04:21:18.423Z,51.79
2022-08-28T04:23:46.673Z,51.60
2022-08-28T04:26:15.589Z,51.78
2022-08-28T04:28:43.909Z,51.69
2022-08-28T04:31:11.990Z,51.77
2022-08-28T04:33:40.252Z,51.94
2022-08-28T04:36:12.274Z,51.95
2022-08-28T04:38:43.737Z,51.89
2022-08-28T04:41:13.013Z,51.86
2022-08-28T04:43:40.985Z,51.75
2022-08-28T04:46:11.371Z,51.51
2022-08-28T04:48:39.600Z,51.57
2022-08-28T04:51:10.521Z,51.86
2022-08-28T04:53:38.628Z,51.69
2022-08-28T04:56:07.983Z,51.53
2022-08-28T04:58:35.991Z,51.65
2022-08-28T05:01:06.742Z,51.42
2022-08-28T05:03:35.345Z,51.73
2022-08-28T05:06:04.063Z,51.76
2022-08-28T05:08:33.467Z,51.45
2022-08-28T05:11:10.820Z,51.76
2022-08-28T05:13:38.905Z,51.50
2022-08-28T05:16:07.338Z,51.38
2022-08-28T05:18:35.831Z,51.76
2022-08-28T05:21:03.817Z,51.44
2022-08-28T05:23:33.351Z,51.57
2022-08-28T05:26:01.353Z,51.75
2022-08-28T05:28:29.442Z,51.32
2022-08-28T05:30:57.450Z,51.51
2022-08-28T05:33:25.811Z,51.70
2022-08-28T05:35:53.822Z,51.77
2022-08-28T05:38:21.817Z,51.67
2022-08-28T05:40:51.237Z,51.33
2022-08-28T05:43:19.491Z,51.46
2022-08-28T05:45:47.530Z,51.47
2022-08-28T05:48:16.386Z,51.40
2022-08-28T05:50:47.391Z,51.26
2022-08-28T05:53:15.578Z,51.15
2022-08-28T05:55:43.568Z,51.44
2022-08-28T05:58:30.746Z,51.16
2022-08-28T06:01:08.653Z,51.10
2022-08-28T06:03:37.476Z,51.08
2022-08-28T06:06:05.827Z,51.07
2022-08-28T06:08:33.970Z,51.26
2022-08-28T06:11:04.041Z,51.08
2022-08-28T06:13:33.459Z,50.93
2022-08-28T06:16:02.364Z,51.08
2022-08-28T06:18:30.722Z,51.14
2022-08-28T06:21:02.492Z,51.11
2022-08-28T06:23:30.516Z,50.81
2022-08-28T06:25:58.515Z,50.92
2022-08-28T06:28:27.316Z,50.88
2022-08-28T06:31:18.542Z,50.96
2022-08-28T06:33:46.154Z,50.81
2022-08-28T06:36:14.185Z,50.75
2022-08-28T06:38:46.559Z,50.61
2022-08-28T06:41:15.756Z,50.84
2022-08-28T06:43:43.800Z,50.56
2022-08-28T06:46:13.209Z,50.59
2022-08-28T06:48:41.315Z,50.49
2022-08-28T06:51:10.169Z,50.57
2022-08-28T06:53:38.597Z,50.29
2022-08-28T06:56:08.578Z,50.32
2022-08-28T06:58:37.153Z,50.51
2022-08-28T07:01:06.575Z,50.33
2022-08-28T07:03:35.979Z,50.10
2022-08-28T07:06:12.582Z,50.19
2022-08-28T07:08:40.844Z,50.26
2022-08-28T07:11:13.245Z,50.14
2022-08-28T07:13:41.501Z,49.98
2022-08-28T07:16:09.578Z,50.06
2022-08-28T07:18:39.020Z,49.99
2022-08-28T07:21:12.131Z,49.78
2022-08-28T07:23:40.762Z,49.76
2022-08-28T07:26:10.056Z,49.65
2022-08-28T07:28:38.301Z,49.56
2022-08-28T07:31:07.862Z,49.49
2022-08-28T07:33:36.081Z,49.49
2022-08-28T07:36:07.369Z,49.59
2022-08-28T07:38:35.397Z,49.19
2022-08-28T07:41:03.715Z,49.19
2022-08-28T07:43:48.965Z,49.05
2022-08-28T07:46:17.094Z,49.28
2022-08-28T07:48:48.046Z,48.92
2022-08-28T07:51:17.449Z,48.77
2022-08-28T07:53:45.423Z,48.75
2022-08-28T07:56:13.381Z,48.70
2022-08-28T07:58:41.610Z,48.59
2022-08-28T08:01:09.677Z,48.54
2022-08-28T08:03:37.757Z,48.48
2022-08-28T08:06:06.122Z,48.20
2022-08-28T08:08:35.576Z,48.40
2022-08-28T08:11:05.280Z,48.21
2022-08-28T08:13:33.917Z,48.07
2022-08-28T08:16:03.470Z,48.10
2022-08-28T08:18:31.596Z,48.36
2022-08-28T08:20:59.634Z,48.10
2022-08-28T08:23:27.807Z,48.21
2022-08-28T08:25:58.069Z,48.14
2022-08-28T08:28:26.059Z,48.40
2022-08-28T08:31:04.142Z,48.30
2022-08-28T08:33:32.513Z,48.45
2022-08-28T08:36:00.598Z,48.46
2022-08-28T08:38:29.960Z,48.52
2022-08-28T08:40:59.972Z,48.61
2022-08-28T08:43:28.336Z,48.57
2022-08-28T08:45:56.563Z,48.27
2022-08-28T08:48:27.941Z,48.36
2022-08-28T08:50:56.060Z,48.26
2022-08-28T08:53:28.248Z,48.38
2022-08-28T08:55:57.052Z,48.54
2022-08-28T08:58:28.959Z,48.20
2022-08-28T09:01:01.288Z,48.05
2022-08-28T09:03:39.205Z,48.17
2022-08-28T09:06:17.278Z,48.28
2022-08-28T09:08:48.750Z,47.74
2022-08-28T09:11:26.868Z,47.46
2022-08-28T09:14:00.891Z,47.76
2022-08-28T09:16:30.231Z,46.73
2022-08-28T09:18:58.955Z,46.89
2022-08-28T09:21:29.553Z,46.25
2022-08-28T09:23:58.428Z,45.86
2022-08-28T09:26:26.524Z,45.46
2022-08-28T09:29:03.720Z,45.27
2022-08-28T09:31:33.389Z,44.88
2022-08-28T09:34:22.899Z,44.74
2022-08-28T09:36:51.068Z,44.07
2022-08-28T09:39:20.199Z,44.56
2022-08-28T09:42:30.090Z,43.84
2022-08-28T09:45:02.048Z,43.83
2022-08-28T09:47:49.228Z,44.10
2022-08-28T09:50:26.205Z,44.10
2022-08-28T09:52:55.014Z,43.62
2022-08-28T09:55:27.000Z,43.28
2022-08-28T09:57:55.586Z,43.42
2022-08-28T10:00:25.009Z,43.32
2022-08-28T10:02:54.983Z,43.42
2022-08-28T10:05:31.623Z,43.23
2022-08-28T10:08:02.120Z,42.90
2022-08-28T10:10:34.230Z,42.29
2022-08-28T10:13:06.051Z,41.70
2022-08-28T10:15:43.530Z,41.10
2022-08-28T10:18:33.027Z,40.97
2022-08-28T10:21:05.256Z,41.53
2022-08-28T10:23:38.178Z,41.32
2022-08-28T10:26:16.517Z,40.70
2022-08-28T10:28:47.393Z,41.08
2022-08-28T10:31:19.998Z,40.57
2022-08-28T10:33:58.933Z,40.86
2022-08-28T10:36:34.629Z,40.88
2022-08-28T10:39:09.137Z,40.91
2022-08-28T10:41:39.876Z,40.34
2022-08-28T10:44:07.870Z,39.73
2022-08-28T10:46:40.105Z,40.11
2022-08-28T10:49:09.677Z,39.41
2022-08-28T10:51:43.611Z,39.01
2022-08-28T10:54:16.113Z,38.56
2022-08-28T10:56:45.140Z,37.96
2022-08-28T10:59:13.318Z,37.91
2022-08-28T11:01:43.109Z,37.59
2022-08-28T11:04:12.374Z,37.47
2022-08-28T11:06:41.703Z,37.22
2022-08-28T11:09:26.286Z,37.49
2022-08-28T11:12:00.987Z,37.37
2022-08-28T11:14:32.023Z,36.88
2022-08-28T11:17:02.920Z,37.02
2022-08-28T11:19:52.309Z,36.84
2022-08-28T11:22:21.686Z,36.65
2022-08-28T11:24:55.969Z,36.69
2022-08-28T11:27:31.068Z,36.19
2022-08-28T11:30:32.941Z,36.07
2022-08-28T11:33:10.082Z,36.24
2022-08-28T11:35:51.773Z,36.29
2022-08-28T11:38:55.648Z,35.64
2022-08-28T11:41:26.659Z,35.80
2022-08-28T11:44:28.595Z,35.16
2022-08-28T11:46:58.925Z,34.93
2022-08-28T11:49:46.205Z,34.67
2022-08-28T11:52:29.758Z,34.69
2022-08-28T11:55:02.069Z,34.83
2022-08-28T11:57:40.972Z,34.76
2022-08-28T12:00:10.387Z,34.33
2022-08-28T12:03:13.698Z,34.69
2022-08-28T12:05:54.294Z,34.58
2022-08-28T12:09:11.713Z,34.12
2022-08-28T12:11:50.378Z,34.63
2022-08-28T12:15:07.768Z,34.28
2022-08-28T12:17:44.846Z,34.62
2022-08-28T12:20:14.503Z,34.27
2022-08-28T12:22:46.457Z,34.17
2022-08-28T12:25:20.717Z,33.73
2022-08-28T12:27:48.733Z,32.93
2022-08-28T12:30:25.183Z,32.97
2022-08-28T12:32:54.286Z,32.82
2022-08-28T12:35:23.702Z,33.04
2022-08-28T12:38:02.600Z,33.16
2022-08-28T12:40:33.349Z,32.85
2022-08-28T12:43:02.651Z,33.15
2022-08-28T12:45:32.167Z,32.85
2022-08-28T12:48:02.382Z,33.20
2022-08-28T12:50:33.212Z,33.05
2022-08-28T12:53:04.068Z,33.00
2022-08-28T12:55:32.743Z,33.08
2022-08-28T12:58:00.816Z,32.97
2022-08-28T13:00:32.096Z,32.91
2022-08-28T13:03:00.146Z,32.89
2022-08-28T13:05:39.655Z,32.88
2022-08-28T13:08:10.166Z,33.26
2022-08-28T13:10:39.244Z,33.44
2022-08-28T13:13:08.344Z,32.99
2022-08-28T13:15:55.349Z,33.21
2022-08-28T13:18:47.429Z,33.14
2022-08-28T13:21:33.949Z,32.82
2022-08-28T13:24:27.250Z,32.83
2022-08-28T13:27:03.432Z,33.05
2022-08-28T13:29:31.430Z,32.88
2022-08-28T13:32:00.309Z,33.17
2022-08-28T13:34:29.164Z,32.80
2022-08-28T13:36:59.734Z,33.44
2022-08-28T13:39:30.091Z,33.11
2022-08-28T13:41:59.741Z,33.06
2022-08-28T13:44:34.966Z,33.03
2022-08-28T13:47:03.613Z,33.62
2022-08-28T13:49:32.162Z,33.45
2022-08-28T13:52:01.057Z,33.42
2022-08-28T13:54:31.302Z,33.18
2022-08-28T13:57:00.207Z,33.15
2022-08-28T13:59:30.543Z,33.20
2022-08-28T14:02:17.162Z,33.57
2022-08-28T14:04:45.344Z,33.46
2022-08-28T14:07:13.459Z,33.58
2022-08-28T14:09:42.895Z,33.50
2022-08-28T14:12:12.094Z,33.43
2022-08-28T14:14:40.166Z,33.29
2022-08-28T14:17:08.364Z,33.55
2022-08-28T14:19:36.806Z,33.53
2022-08-28T14:22:05.005Z,32.92
2022-08-28T14:24:33.155Z,33.18
2022-08-28T14:27:02.649Z,32.95
2022-08-28T14:29:31.505Z,32.58
2022-08-28T14:31:59.985Z,32.68
2022-08-28T14:34:28.031Z,32.62
2022-08-28T14:36:56.170Z,32.33
2022-08-28T14:39:25.081Z,32.70
2022-08-28T14:41:53.420Z,32.61
2022-08-28T14:44:23.413Z,32.93
2022-08-28T14:46:52.668Z,33.09
2022-08-28T14:49:25.257Z,33.29
2022-08-28T14:51:54.217Z,33.18
2022-08-28T14:54:23.756Z,32.78
2022-08-28T14:56:52.341Z,32.59
2022-08-28T14:59:24.433Z,32.91
2022-08-28T15:01:53.332Z,32.84
2022-08-28T15:04:23.748Z,33.30
2022-08-28T15:06:51.959Z,32.84
2022-08-28T15:09:20.288Z,32.91
2022-08-28T15:11:48.299Z,32.93
2022-08-28T15:14:16.319Z,32.89
2022-08-28T15:16:46.599Z,32.97
2022-08-28T15:19:16.048Z,32.90
2022-08-28T15:21:45.309Z,32.94
2022-08-28T15:24:13.936Z,33.28
2022-08-28T15:26:41.956Z,33.17
2022-08-28T15:29:11.917Z,33.90
2022-08-28T15:31:41.278Z,33.63
2022-08-28T15:34:13.381Z,33.40
2022-08-28T15:36:41.872Z,33.39
2022-08-28T15:39:27.266Z,33.64
2022-08-28T15:41:55.437Z,34.29
2022-08-28T15:44:23.535Z,34.72
2022-08-28T15:46:52.969Z,34.49
2022-08-28T15:49:23.863Z,34.32
2022-08-28T15:51:52.601Z,34.25
2022-08-28T15:54:20.741Z,34.14
2022-08-28T15:56:49.638Z,34.52
2022-08-28T15:59:18.802Z,34.39
2022-08-28T16:01:46.904Z,34.18
2022-08-28T16:04:15.974Z,34.33
2022-08-28T16:06:46.013Z,34.34
2022-08-28T16:09:14.280Z,34.54
2022-08-28T16:11:43.821Z,34.41
2022-08-28T16:14:12.178Z,34.40
2022-08-28T16:16:40.322Z,33.85
2022-08-28T16:19:14.559Z,33.59
2022-08-28T16:21:42.695Z,34.08
2022-08-28T16:24:12.100Z,33.76
2022-08-28T16:26:40.249Z,34.06
2022-08-28T16:29:08.369Z,34.37
2022-08-28T16:31:37.000Z,34.35
2022-08-28T16:34:05.028Z,34.34
2022-08-28T16:36:33.445Z,34.47
2022-08-28T16:39:03.939Z,34.53
2022-08-28T16:41:33.547Z,34.07
2022-08-28T16:44:01.510Z,33.98
2022-08-28T16:46:44.310Z,33.94
2022-08-28T16:49:12.430Z,33.48
2022-08-28T16:51:40.530Z,32.65
2022-08-28T16:54:08.672Z,32.74
2022-08-28T16:56:38.263Z,32.30
2022-08-28T16:59:10.144Z,31.45
2022-08-28T17:01:40.881Z,31.17
2022-08-28T17:04:10.770Z,31.44
2022-08-28T17:06:39.415Z,31.59
2022-08-28T17:09:07.427Z,31.66
2022-08-28T17:11:35.699Z,31.73
2022-08-28T17:14:05.098Z,31.83
2022-08-28T17:16:33.250Z,32.09
2022-08-28T17:19:01.256Z,32.56
2022-08-28T17:21:46.733Z,32.78
2022-08-28T17:24:14.778Z,32.76
2022-08-28T17:26:43.748Z,32.79
2022-08-28T17:29:13.147Z,32.67
2022-08-28T17:31:41.453Z,33.12
2022-08-28T17:34:10.506Z,33.49
2022-08-28T17:36:38.715Z,33.29
2022-08-28T17:39:11.966Z,33.78
2022-08-28T17:41:41.223Z,33.66
2022-08-28T17:44:09.496Z,34.26
2022-08-28T17:46:38.941Z,34.00
2022-08-28T17:49:07.478Z,34.04
2022-08-28T17:51:43.234Z,34.61
2022-08-28T17:54:13.132Z,34.84
2022-08-28T17:56:41.318Z,34.75
2022-08-28T17:59:09.460Z,34.49
2022-08-28T18:01:39.046Z,34.77
2022-08-28T18:04:07.177Z,34.98
2022-08-28T18:06:35.191Z,35.42
2022-08-28T18:09:04.028Z,35.19
2022-08-28T18:11:32.081Z,35.12
2022-08-28T18:14:00.802Z,35.69
2022-08-28T18:16:31.516Z,35.61
2022-08-28T18:19:01.324Z,36.02
2022-08-28T18:21:29.457Z,35.97
2022-08-28T18:23:57.784Z,36.44
2022-08-28T18:26:25.767Z,36.41
2022-08-28T18:28:53.834Z,36.19
2022-08-28T18:31:21.984Z,36.44
2022-08-28T18:33:50.241Z,36.77
2022-08-28T18:36:19.662Z,37.05
2022-08-28T18:38:47.841Z,36.77
2022-08-28T18:41:15.900Z,37.35
2022-08-28T18:43:43.970Z,37.01
2022-08-28T18:46:14.145Z,37.56
2022-08-28T18:48:42.678Z,37.88
2022-08-28T18:51:11.771Z,37.79
2022-08-28T18:53:42.357Z,37.78
2022-08-28T18:56:12.473Z,38.09
2022-08-28T18:58:40.774Z,38.19
2022-08-28T19:01:09.416Z,38.32
2022-08-28T19:03:37.568Z,38.64
2022-08-28T19:06:06.414Z,38.65
2022-08-28T19:08:35.614Z,38.54
2022-08-28T19:11:08.848Z,38.80
2022-08-28T19:13:37.076Z,39.25
2022-08-28T19:16:06.219Z,39.06
2022-08-28T19:18:34.371Z,39.83
2022-08-28T19:21:06.971Z,40.10
2022-08-28T19:23:35.140Z,40.22
2022-08-28T19:26:03.250Z,40.40
2022-08-28T19:28:32.698Z,40.43
2022-08-28T19:31:01.043Z,41.17
2022-08-28T19:33:29.045Z,41.28
2022-08-28T19:35:57.111Z,41.64
2022-08-28T19:38:25.147Z,41.77
2022-08-28T19:40:58.947Z,42.04
2022-08-28T19:43:31.136Z,42.04
2022-08-28T19:46:18.395Z,42.09
2022-08-28T19:48:48.359Z,42.14
2022-08-28T19:51:17.712Z,42.28
2022-08-28T19:53:56.845Z,42.10
2022-08-28T19:56:27.292Z,42.10
2022-08-28T19:58:57.645Z,42.18
2022-08-28T20:01:29.653Z,42.35
2022-08-28T20:03:58.228Z,42.35
2022-08-28T20:06:26.348Z,42.58
2022-08-28T20:08:54.680Z,42.67
2022-08-28T20:11:25.333Z,42.76
2022-08-28T20:13:59.077Z,42.81
2022-08-28T20:16:28.799Z,42.95
2022-08-28T20:18:57.780Z,43.27
2022-08-28T20:21:36.849Z,43.23
2022-08-28T20:24:06.139Z,43.45
2022-08-28T20:26:34.160Z,43.69
2022-08-28T20:29:02.121Z,44.05
2022-08-28T20:31:31.578Z,44.22
2022-08-28T20:33:59.691Z,44.14
2022-08-28T20:36:27.674Z,44.23
2022-08-28T20:38:55.697Z,44.29
2022-08-28T20:41:23.832Z,44.28
2022-08-28T20:43:51.856Z,44.56
2022-08-28T20:46:23.171Z,44.63
2022-08-28T20:48:52.625Z,44.58
2022-08-28T20:51:41.521Z,44.69
2022-08-28T20:54:09.540Z,44.55
2022-08-28T20:56:37.612Z,44.83
2022-08-28T20:59:05.642Z,44.68
2022-08-28T21:01:33.876Z,44.76
2022-08-28T21:04:03.613Z,44.93
2022-08-28T21:06:32.193Z,44.95
2022-08-28T21:09:00.228Z,45.00
2022-08-28T21:11:28.256Z,45.03
2022-08-28T21:13:56.527Z,45.38
2022-08-28T21:16:24.652Z,45.22
2022-08-28T21:19:12.125Z,45.38
2022-08-28T21:21:42.276Z,45.63
2022-08-28T21:24:11.336Z,45.60
2022-08-28T21:26:42.612Z,45.30
2022-08-28T21:29:10.841Z,45.41
2022-08-28T21:31:40.851Z,45.76
2022-08-28T21:34:09.756Z,45.47
2022-08-28T21:36:38.102Z,45.83
2022-08-28T21:39:07.543Z,45.77
2022-08-28T21:41:35.576Z,45.94
2022-08-28T21:44:03.770Z,45.94
2022-08-28T21:46:31.968Z,46.01
2022-08-28T21:49:00.009Z,46.06
2022-08-28T21:51:28.472Z,45.95
2022-08-28T21:53:57.645Z,46.27
2022-08-28T21:56:27.898Z,46.23
2022-08-28T21:58:56.172Z,46.38
2022-08-28T22:01:25.964Z,46.55
2022-08-28T22:03:54.526Z,46.56
2022-08-28T22:06:22.927Z,46.73
2022-08-28T22:08:51.200Z,46.65
2022-08-28T22:11:24.730Z,46.79
2022-08-28T22:13:54.627Z,46.63
2022-08-28T22:16:22.827Z,46.95
2022-08-28T22:18:50.995Z,46.77
2022-08-28T22:21:38.830Z,46.96
2022-08-28T22:24:07.213Z,47.33
2022-08-28T22:26:35.468Z,47.52
2022-08-28T22:29:05.931Z,47.85
2022-08-28T22:31:34.207Z,48.00
2022-08-28T22:34:04.739Z,48.30
2022-08-28T22:36:34.963Z,48.28
2022-08-28T22:39:03.051Z,48.54
2022-08-28T22:41:31.504Z,48.35
2022-08-28T22:43:59.850Z,48.25
2022-08-28T22:46:29.407Z,48.19
2022-08-28T22:48:57.832Z,48.28
2022-08-28T22:51:25.816Z,48.66
2022-08-28T22:53:54.381Z,48.63
2022-08-28T22:56:22.827Z,48.58
2022-08-28T22:58:50.843Z,48.70
2022-08-28T23:01:19.819Z,48.68
2022-08-28T23:03:50.855Z,48.93
2022-08-28T23:06:18.946Z,49.08
2022-08-28T23:08:47.113Z,49.16
2022-08-28T23:11:15.179Z,49.16
2022-08-28T23:13:43.225Z,49.27
2022-08-28T23:16:11.773Z,49.04
2022-08-28T23:19:06.715Z,49.07
2022-08-28T23:21:29.478Z,49.08
2022-08-28T23:23:57.629Z,49.27
2022-08-28T23:26:25.861Z,49.13
2022-08-28T23:28:53.940Z,49.23
2022-08-28T23:31:22.004Z,49.77
2022-08-28T23:33:51.086Z,49.84
2022-08-28T23:36:19.611Z,49.68
2022-08-28T23:38:49.063Z,50.14
2022-08-28T23:41:17.177Z,50.21
2022-08-28T23:43:45.213Z,50.20
2022-08-28T23:46:16.201Z,49.98
2022-08-28T23:48:45.205Z,50.11
2022-08-28T23:51:13.850Z,49.84
2022-08-28T23:53:42.332Z,50.40
2022-08-28T23:56:12.768Z,50.01
2022-08-28T23:58:43.189Z,50.19
